Latest Weather Observations for Wadeye (Port Keats)

IDD60801

Issued at 9:01 pm CST Thursday 28 May 2015 (issued every 30 minutes, with the page automatically refreshed every 10 minutes)

About weather observations | Map of weather stations | Latest weather observations for NT | Other Formats
Station Details ID: 014948 Name: PORT KEATS AIRPORT Lat: -14.25 Lon: 129.53 Height: 28.0 m
Data from the previous 72 hours. | See also: Recent months at Wadeye (Port Keats)
Date/Time
CST
Temp
°C
App
Temp
°C
Dew
Point
Rel
Hum
%
Delta-T
°C
Wind Press
QNH
hPa
Press
MSL
hPa
Rain
since 9 am
mm
Dir
 
Spd
km/h
Gust
km/h
Spd
kts
Gust
kts
28/09:00pm 23.4 26.7 19.1 77 2.7 CALM 0 0 0 0 1013.3 1013.1 0.0
28/08:30pm 24.3 27.5 18.9 72 3.4 CALM 0 0 0 0 1013.0 1012.8 0.0
28/08:00pm 25.5 28.5 19.2 68 4.0 N 2 6 1 3 1012.8 1012.6 0.0
28/07:30pm 25.9 29.2 19.1 66 4.4 CALM 0 0 0 0 1012.5 1012.3 0.0
28/07:00pm 27.0 29.9 19.1 62 5.1 S 2 6 1 3 1012.0 1011.8 0.0
28/06:30pm 27.6 29.7 18.9 59 5.6 SW 6 9 3 5 1011.7 1011.5 0.0
28/06:00pm 28.3 30.1 18.7 56 6.2 WSW 7 13 4 7 1011.4 1011.2 0.0
28/05:30pm 29.3 31.1 18.7 52 6.8 WSW 7 13 4 7 1011.1 1010.9 0.0
28/05:00pm 30.8 32.6 19.5 51 7.4 WSW 9 11 5 6 1011.0 1010.8 0.0
28/04:30pm 31.6 32.9 19.2 47 8.1 W 11 17 6 9 1010.8 1010.6 0.0
28/04:00pm 32.2 33.6 19.5 47 8.4 W 11 17 6 9 1010.8 1010.6 0.0
28/03:30pm 32.1 33.4 19.4 47 8.3 WNW 11 17 6 9 1010.7 1010.5 0.0
28/03:00pm 32.6 34.4 19.5 46 8.6 NNW 9 17 5 9 1010.9 1010.7 0.0
28/02:30pm 34.1 33.1 14.6 31 12.1 NE 13 19 7 10 1011.2 1011.0 0.0
28/02:00pm 33.9 32.3 13.9 30 12.2 E 15 20 8 11 1011.6 1011.4 0.0
28/01:30pm 33.0 31.3 13.6 31 11.8 ESE 15 22 8 12 1012.3 1012.1 0.0
28/01:00pm 33.4 32.1 14.9 32 11.4 ESE 15 22 8 12 1012.8 1012.6 0.0
28/12:30pm 33.1 31.9 15.1 33 11.2 ENE 15 24 8 13 1013.3 1013.1 0.0
28/12:00pm 33.0 33.2 16.8 38 10.3 ENE 11 17 6 9 1013.6 1013.4 0.0
28/11:30am 31.6 31.1 16.0 39 9.7 E 13 20 7 11 1014.0 1013.8 0.0
28/11:00am 30.9 31.9 18.6 48 8.0 SSE 11 17 6 9 1014.1 1013.9 0.0
28/10:30am 30.6 31.4 19.0 50 7.5 SE 13 19 7 10 1014.3 1014.1 0.0
28/10:00am 28.8 30.3 19.7 58 5.9 SSE 11 13 6 7 1014.3 1014.1 0.0
28/09:30am 27.7 30.8 21.5 69 4.1 SSW 7 13 4 7 1014.2 1014.0 0.0
28/09:00am 26.1 30.2 23.0 83 2.1 SSW 6 9 3 5 1014.0 1013.8 0.0
28/08:30am 23.6 28.4 22.8 95 0.5 S 2 7 1 4 1013.9 1013.7 0.0
28/08:00am 21.3 25.3 20.5 95 0.5 CALM 0 0 0 0 1013.5 1013.3 0.0
28/07:30am 20.7 24.4 19.9 95 0.5 CALM 0 0 0 0 1013.1 1012.9 0.0
28/07:00am 20.7 24.4 19.9 95 0.5 CALM 0 0 0 0 1012.9 1012.7 0.0
28/06:30am 20.5 24.1 19.7 95 0.5 CALM 0 0 0 0 1012.6 1012.4 0.0
28/06:00am 20.2 23.5 19.2 94 0.6 CALM 0 0 0 0 1012.4 1012.2 0.0
28/05:30am 20.2 23.5 19.2 94 0.6 CALM 0 0 0 0 1012.1 1011.9 0.0
28/05:00am 20.1 23.3 18.9 93 0.8 CALM 0 0 0 0 1012.1 1011.9 0.0
28/04:30am 20.1 23.3 18.8 92 0.8 CALM 0 0 0 0 1012.0 1011.8 0.0
28/04:00am 20.3 23.5 18.8 91 0.9 CALM 0 0 0 0 1012.2 1012.0 0.0
28/03:30am 20.8 24.0 18.9 89 1.2 CALM 0 0 0 0 1012.4 1012.2 0.0
28/03:00am 21.0 24.4 19.3 90 1.1 CALM 0 0 0 0 1012.5 1012.3 0.0
28/02:30am 21.0 24.3 19.1 89 1.2 CALM 0 0 0 0 1012.9 1012.7 0.0
28/02:00am 21.2 24.4 18.9 87 1.4 CALM 0 0 0 0 1013.0 1012.8 0.0
28/01:30am 22.1 25.9 20.2 89 1.2 CALM 0 0 0 0 1013.0 1012.8 0.0
28/01:00am 21.2 24.5 19.1 88 1.3 CALM 0 0 0 0 1013.2 1013.0 0.0
28/12:30am 21.3 24.6 19.2 88 1.3 CALM 0 0 0 0 1013.5 1013.3 0.0
28/12:00am 21.5 24.8 19.2 87 1.5 CALM 0 6 0 3 1013.5 1013.3 0.0
 
Date/Time
CST
Temp
°C
App
Temp
°C
Dew
Point
Rel
Hum
%
Delta-T
°C
Wind Press
QNH
hPa
Press
MSL
hPa
Rain
since 9 am
mm
Dir
 
Spd
km/h
Gust
km/h
Spd
kts
Gust
kts
27/11:30pm 22.2 25.7 19.6 85 1.7 CALM 0 0 0 0 1013.7 1013.5 0.0
27/11:00pm 22.3 25.9 19.8 86 1.6 CALM 0 0 0 0 1013.6 1013.4 0.0
27/10:30pm 21.9 25.4 19.5 86 1.5 CALM 0 0 0 0 1013.4 1013.2 0.0
27/10:00pm 22.5 26.0 19.5 83 1.9 CALM 0 0 0 0 1013.3 1013.1 0.0
27/09:30pm 23.1 26.6 19.5 80 2.3 CALM 0 0 0 0 1013.1 1012.9 0.0
27/09:00pm 23.5 26.9 19.4 78 2.6 CALM 0 0 0 0 1013.1 1012.9 0.0
27/08:30pm 24.1 27.5 19.4 75 3.0 CALM 0 0 0 0 1012.9 1012.7 0.0
27/08:00pm 24.7 28.2 19.5 73 3.3 CALM 0 0 0 0 1012.6 1012.4 0.0
27/07:30pm 25.6 29.1 19.5 69 3.9 CALM 0 0 0 0 1012.2 1012.0 0.0
27/07:00pm 26.3 28.6 19.4 66 4.5 W 6 7 3 4 1011.8 1011.6 0.0
27/06:30pm 27.2 29.4 19.5 62 5.0 WSW 7 9 4 5 1011.4 1011.2 0.0
27/06:00pm 28.5 30.1 19.1 56 6.1 WNW 9 13 5 7 1011.4 1011.2 0.0
27/05:30pm 29.6 31.1 19.0 53 6.9 W 9 13 5 7 1011.0 1010.8 0.0
27/05:00pm 30.4 31.7 19.4 51 7.2 W 11 15 6 8 1010.8 1010.6 0.0
27/04:30pm 30.6 31.4 19.0 50 7.5 W 13 19 7 10 1010.7 1010.5 0.0
27/04:00pm 31.2 31.3 17.5 44 8.7 W 13 22 7 12 1010.6 1010.4 0.0
27/03:30pm 32.1 32.7 18.7 45 8.7 W 13 22 7 12 1010.6 1010.4 0.0
27/03:00pm 35.2 34.6 12.2 25 13.8 SE 7 11 4 6 1010.6 1010.4 0.0
27/02:30pm 34.6 32.9 12.3 26 13.4 ESE 13 22 7 12 1010.8 1010.6 0.0
27/02:00pm 34.9 32.6 13.1 27 13.2 SE 17 20 9 11 1011.2 1011.0 0.0
27/01:30pm 34.6 32.6 14.0 29 12.6 SE 17 24 9 13 1011.8 1011.6 0.0
27/01:00pm 33.6 31.9 13.6 29 12.1 ESE 15 20 8 11 1012.6 1012.4 0.0
27/12:30pm 33.3 31.9 14.4 32 11.6 SE 15 26 8 14 1013.3 1013.1 0.0
27/12:00pm 32.4 30.9 14.1 33 11.1 ENE 15 20 8 11 1013.7 1013.5 0.0
27/11:30am 32.2 30.7 14.3 33 10.9 ENE 15 20 8 11 1014.1 1013.9 0.0
27/11:00am 31.4 29.6 14.5 35 10.3 ENE 17 24 9 13 1014.5 1014.3 0.0
27/10:30am 30.3 28.5 14.4 38 9.6 ENE 17 30 9 16 1014.8 1014.6 0.0
27/10:00am 29.8 28.5 14.7 39 9.2 E 15 24 8 13 1014.9 1014.7 0.0
27/09:30am 28.4 27.8 15.7 46 7.8 E 13 20 7 11 1015.1 1014.9 0.0
27/09:00am 26.9 27.3 16.2 52 6.6 SE 9 13 5 7 1014.7 1014.5 0.0
27/08:30am 24.9 25.8 16.6 60 5.1 SE 7 9 4 5 1014.4 1014.2 0.0
27/08:00am 22.4 23.6 16.9 71 3.4 ENE 6 9 3 5 1014.0 1013.8 0.0
27/07:30am 23.0 22.6 15.3 62 4.6 SE 11 19 6 10 1013.6 1013.4 0.0
27/07:00am 22.0 22.9 18.4 80 2.3 SE 11 17 6 9 1012.8 1012.6 0.0
27/06:30am 18.5 19.6 17.2 92 0.8 SSE 7 9 4 5 1012.5 1012.3 0.0
27/06:00am 18.7 20.3 17.0 90 1.0 SSE 4 7 2 4 1012.4 1012.2 0.0
27/05:30am 19.2 21.8 17.5 90 1.0 CALM 0 0 0 0 1012.3 1012.1 0.0
27/05:00am 19.2 21.9 17.7 91 0.9 CALM 0 0 0 0 1012.5 1012.3 0.0
27/04:30am 19.4 22.1 17.7 90 1.0 CALM 0 0 0 0 1012.7 1012.5 0.0
27/04:00am 19.9 22.7 18.0 89 1.2 CALM 0 0 0 0 1013.0 1012.8 0.0
27/03:30am 20.3 23.2 18.1 87 1.4 CALM 0 0 0 0 1013.2 1013.0 0.0
27/03:00am 20.6 23.5 18.2 86 1.5 CALM 0 0 0 0 1013.7 1013.5 0.0
27/02:30am 21.1 24.1 18.5 85 1.6 CALM 0 0 0 0 1014.1 1013.9 0.0
27/02:00am 21.5 24.4 18.3 82 2.0 CALM 0 0 0 0 1014.5 1014.3 0.0
27/01:30am 22.4 25.6 18.8 80 2.3 CALM 0 4 0 2 1014.7 1014.5 0.0
27/01:00am 23.0 25.4 19.6 81 2.2 N 6 9 3 5 1014.8 1014.6 0.0
27/12:30am 23.9 27.3 19.4 76 2.9 CALM 0 0 0 0 1014.9 1014.7 0.0
27/12:00am 22.8 25.0 19.2 80 2.3 S 6 7 3 4 1015.0 1014.8 0.0
 
Date/Time
CST
Temp
°C
App
Temp
°C
Dew
Point
Rel
Hum
%
Delta-T
°C
Wind Press
QNH
hPa
Press
MSL
hPa
Rain
since 9 am
mm
Dir
 
Spd
km/h
Gust
km/h
Spd
kts
Gust
kts
26/11:30pm 22.8 26.1 19.2 80 2.3 CALM 0 0 0 0 1015.2 1015.0 0.0
26/11:00pm 22.7 25.9 18.9 79 2.4 CALM 0 2 0 1 1015.2 1015.0 0.0
26/10:30pm 23.0 25.0 18.7 77 2.7 S 6 7 3 4 1015.2 1015.0 0.0
26/10:00pm 23.0 24.8 18.7 77 2.7 SSW 7 9 4 5 1015.1 1014.9 0.0
26/09:30pm 22.9 24.7 18.7 77 2.7 SSW 7 9 4 5 1014.9 1014.7 0.0
26/09:00pm 23.3 26.4 18.6 75 3.0 CALM 0 0 0 0 1014.7 1014.5 0.0
26/08:30pm 24.1 27.1 18.5 71 3.5 CALM 0 0 0 0 1014.5 1014.3 0.0
26/08:00pm 24.9 28.0 18.6 68 4.0 CALM 0 0 0 0 1014.2 1014.0 0.0
26/07:30pm 25.7 28.6 18.1 63 4.8 CALM 0 0 0 0 1013.7 1013.5 0.0
26/07:00pm 26.6 29.4 17.9 59 5.5 CALM 0 2 0 1 1013.4 1013.2 0.0
26/06:30pm 27.4 28.9 17.6 55 6.2 WSW 6 9 3 5 1013.2 1013.0 0.0
26/06:00pm 28.9 30.0 17.1 49 7.4 WSW 7 11 4 6 1012.8 1012.6 0.0
26/05:30pm 29.8 29.8 16.2 43 8.5 W 11 17 6 9 1012.5 1012.3 0.0
26/05:00pm 30.9 31.0 16.5 42 9.0 W 11 17 6 9 1012.3 1012.1 0.0
26/04:30pm 31.5 30.8 16.3 40 9.5 W 15 20 8 11 1012.2 1012.0 0.0
26/04:00pm 32.2 31.8 16.1 38 10.1 WSW 13 20 7 11 1012.3 1012.1 0.0
26/03:30pm 33.1 33.1 17.3 39 10.1 W 13 20 7 11 1012.4 1012.2 0.0
26/03:00pm 32.3 31.7 16.6 39 9.9 WNW 15 24 8 13 1012.6 1012.4 0.0
26/02:30pm 33.9 33.4 13.9 30 12.2 ENE 9 17 5 9 1013.0 1012.8 0.0
26/02:00pm 33.5 32.9 14.5 31 11.7 SE 11 17 6 9 1013.4 1013.2 0.0
26/01:30pm 33.5 31.9 15.0 32 11.5 SE 17 24 9 13 1013.8 1013.6 0.0
26/01:00pm 33.8 33.4 15.3 33 11.5 E 11 17 6 9 1014.6 1014.4 0.0
26/12:30pm 32.4 30.9 14.1 33 11.1 ESE 15 24 8 13 1015.0 1014.8 0.0
26/12:00pm 32.6 30.2 13.8 32 11.4 E 19 30 10 16 1015.5 1015.3 0.0
26/11:30am 32.0 30.6 14.6 34 10.7 E 15 20 8 11 1016.0 1015.8 0.0
26/11:00am 31.6 29.6 13.8 34 10.8 E 17 20 9 11 1016.3 1016.1 0.0
26/10:30am 30.5 29.1 13.3 35 10.3 ESE 13 20 7 11 1016.5 1016.3 0.0
26/10:00am 29.7 27.7 13.9 38 9.5 E 17 24 9 13 1016.7 1016.5 0.0
26/09:30am 28.5 26.8 13.6 40 8.9 E 15 22 8 12 1016.7 1016.5 0.0
26/09:00am 27.6 26.8 13.9 43 8.2 ESE 11 13 6 7 1016.8 1016.6 0.0
26/08:30am 26.1 25.2 13.6 46 7.4 ESE 11 17 6 9 1016.6 1016.4 0.0
26/08:00am 21.2 21.0 13.1 60 4.6 SE 6 9 3 5 1016.4 1016.2 0.0
26/07:30am 18.7 17.6 10.5 59 4.4 ESE 7 11 4 6 1016.0 1015.8 0.0
26/07:00am 19.5 18.1 9.4 52 5.3 SE 7 9 4 5 1015.6 1015.4 0.0
26/06:30am 19.4 18.0 9.6 53 5.2 SSE 7 9 4 5 1015.2 1015.0 0.0
26/06:00am 20.1 18.6 8.4 47 6.1 SE 6 7 3 4 1014.9 1014.7 0.0
26/05:30am 19.7 18.2 8.4 48 5.9 SSE 6 7 3 4 1014.8 1014.6 0.0
26/05:00am 21.5 19.4 8.1 42 7.0 SE 9 13 5 7 1014.5 1014.3 0.0
26/04:30am 22.0 20.0 8.5 42 7.1 SSE 9 11 5 6 1014.5 1014.3 0.0
26/04:00am 20.5 19.2 9.1 48 6.0 S 6 9 3 5 1014.6 1014.4 0.0
26/03:30am 20.9 19.0 9.2 47 6.2 SSE 9 9 5 5 1014.8 1014.6 0.0
26/03:00am 20.9 19.1 9.5 48 6.1 SSE 9 11 5 6 1015.0 1014.8 0.0
26/02:30am 19.8 18.7 10.8 56 4.9 SSE 7 7 4 4 1015.4 1015.2 0.0
26/02:00am 20.4 19.1 11.3 56 5.0 SSE 9 11 5 6 1015.5 1015.3 0.0
26/01:30am 20.4 19.1 11.3 56 5.0 SSE 9 11 5 6 1015.8 1015.6 0.0
26/01:00am 20.7 19.4 11.3 55 5.2 SSE 9 11 5 6 1016.0 1015.8 0.0
26/12:30am 21.9 21.0 11.3 51 5.9 SSE 7 9 4 5 1016.1 1015.9 0.0
26/12:00am 21.2 20.5 12.1 56 5.1 S 7 9 4 5 1016.3 1016.1 0.0
 
Date/Time
CST
Temp
°C
App
Temp
°C
Dew
Point
Rel
Hum
%
Delta-T
°C
Wind Press
QNH
hPa
Press
MSL
hPa
Rain
since 9 am
mm
Dir
 
Spd
km/h
Gust
km/h
Spd
kts
Gust
kts
25/11:30pm 21.4 20.9 12.8 58 4.9 S 7 11 4 6 1016.4 1016.2 0.0
25/11:00pm 22.4 21.6 11.8 51 6.0 S 7 9 4 5 1016.4 1016.2 0.0
25/10:30pm 21.8 21.5 13.4 59 4.8 S 7 9 4 5 1016.5 1016.3 0.0
25/10:00pm 21.2 21.8 15.3 69 3.5 SSE 6 6 3 3 1016.4 1016.2 0.0
25/09:30pm 21.0 21.5 15.5 71 3.3 S 7 11 4 6 1016.4 1016.2 0.0

Other Formats:

Comma delimited format used in spreadsheet applications
http://www.bom.gov.au/fwo/IDD60801/IDD60801.95111.axf

JavaScript Object Notation format (JSON) in row-major order
http://www.bom.gov.au/fwo/IDD60801/IDD60801.95111.json